sensor_id;sensor_type;location;lat;lon;timestamp;P1;durP1;ratioP1;P2;durP2;ratioP2
11490;SDS011;5802;52.832;4.758;2022-12-17T00:02:36;2.58;;;2.38;;
11490;SDS011;5802;52.832;4.758;2022-12-17T00:05:21;3.08;;;2.47;;
11490;SDS011;5802;52.832;4.758;2022-12-17T00:08:05;2.80;;;2.50;;
11490;SDS011;5802;52.832;4.758;2022-12-17T00:10:49;2.30;;;2.10;;
11490;SDS011;5802;52.832;4.758;2022-12-17T00:13:33;2.85;;;2.15;;
11490;SDS011;5802;52.832;4.758;2022-12-17T00:16:17;2.42;;;2.17;;
11490;SDS011;5802;52.832;4.758;2022-12-17T00:19:01;2.40;;;2.00;;
11490;SDS011;5802;52.832;4.758;2022-12-17T00:21:47;2.63;;;2.20;;
11490;SDS011;5802;52.832;4.758;2022-12-17T00:24:31;2.42;;;2.22;;
11490;SDS011;5802;52.832;4.758;2022-12-17T00:27:15;2.55;;;2.30;;
11490;SDS011;5802;52.832;4.758;2022-12-17T00:29:59;2.45;;;2.20;;
11490;SDS011;5802;52.832;4.758;2022-12-17T00:32:43;2.35;;;2.15;;
11490;SDS011;5802;52.832;4.758;2022-12-17T00:35:27;2.60;;;2.40;;
11490;SDS011;5802;52.832;4.758;2022-12-17T00:38:14;2.30;;;2.10;;
11490;SDS011;5802;52.832;4.758;2022-12-17T00:40:59;2.83;;;2.13;;
11490;SDS011;5802;52.832;4.758;2022-12-17T00:43:43;2.60;;;2.22;;
11490;SDS011;5802;52.832;4.758;2022-12-17T00:46:27;2.45;;;2.15;;
11490;SDS011;5802;52.832;4.758;2022-12-17T00:49:12;3.08;;;2.30;;
11490;SDS011;5802;52.832;4.758;2022-12-17T00:51:56;2.47;;;2.28;;
11490;SDS011;5802;52.832;4.758;2022-12-17T00:54:41;2.10;;;1.90;;
11490;SDS011;5802;52.832;4.758;2022-12-17T00:57:34;3.03;;;2.20;;
11490;SDS011;5802;52.832;4.758;2022-12-17T01:00:18;3.45;;;2.13;;
11490;SDS011;5802;52.832;4.758;2022-12-17T01:03:04;2.50;;;2.10;;
11490;SDS011;5802;52.832;4.758;2022-12-17T01:05:49;2.53;;;2.00;;
11490;SDS011;5802;52.832;4.758;2022-12-17T01:08:33;2.85;;;2.15;;
11490;SDS011;5802;52.832;4.758;2022-12-17T01:11:18;3.40;;;2.47;;
11490;SDS011;5802;52.832;4.758;2022-12-17T01:14:02;2.63;;;2.42;;
11490;SDS011;5802;52.832;4.758;2022-12-17T01:16:46;3.25;;;2.30;;
11490;SDS011;5802;52.832;4.758;2022-12-17T01:19:30;2.42;;;1.95;;
11490;SDS011;5802;52.832;4.758;2022-12-17T01:22:15;2.65;;;2.30;;
11490;SDS011;5802;52.832;4.758;2022-12-17T01:24:59;2.28;;;2.03;;
11490;SDS011;5802;52.832;4.758;2022-12-17T01:27:47;2.63;;;2.08;;
11490;SDS011;5802;52.832;4.758;2022-12-17T01:30:31;2.55;;;2.20;;
11490;SDS011;5802;52.832;4.758;2022-12-17T01:33:15;2.90;;;2.10;;
11490;SDS011;5802;52.832;4.758;2022-12-17T01:35:59;2.30;;;2.00;;
11490;SDS011;5802;52.832;4.758;2022-12-17T01:38:44;2.65;;;2.05;;
11490;SDS011;5802;52.832;4.758;2022-12-17T01:41:28;2.30;;;2.10;;
11490;SDS011;5802;52.832;4.758;2022-12-17T01:47:29;2.30;;;2.10;;
11490;SDS011;5802;52.832;4.758;2022-12-17T01:50:11;2.40;;;2.00;;
11490;SDS011;5802;52.832;4.758;2022-12-17T01:52:58;2.63;;;2.42;;
11490;SDS011;5802;52.832;4.758;2022-12-17T01:55:43;2.22;;;2.00;;
11490;SDS011;5802;52.832;4.758;2022-12-17T01:58:28;2.35;;;2.10;;
11490;SDS011;5802;52.832;4.758;2022-12-17T02:01:14;2.65;;;2.10;;
11490;SDS011;5802;52.832;4.758;2022-12-17T02:03:58;2.45;;;2.13;;
11490;SDS011;5802;52.832;4.758;2022-12-17T02:06:50;2.50;;;2.00;;
11490;SDS011;5802;52.832;4.758;2022-12-17T02:09:41;2.30;;;2.10;;
11490;SDS011;5802;52.832;4.758;2022-12-17T02:12:33;2.88;;;2.42;;
11490;SDS011;5802;52.832;4.758;2022-12-17T02:15:25;2.50;;;2.30;;
11490;SDS011;5802;52.832;4.758;2022-12-17T02:18:16;2.53;;;2.25;;
11490;SDS011;5802;52.832;4.758;2022-12-17T02:21:03;3.20;;;2.20;;
11490;SDS011;5802;52.832;4.758;2022-12-17T02:23:51;2.38;;;2.15;;
11490;SDS011;5802;52.832;4.758;2022-12-17T02:26:47;2.15;;;1.95;;
11490;SDS011;5802;52.832;4.758;2022-12-17T02:29:34;2.38;;;2.03;;
11490;SDS011;5802;52.832;4.758;2022-12-17T02:32:36;2.30;;;2.05;;
11490;SDS011;5802;52.832;4.758;2022-12-17T02:35:24;3.22;;;2.00;;
11490;SDS011;5802;52.832;4.758;2022-12-17T02:38:15;2.33;;;2.13;;
11490;SDS011;5802;52.832;4.758;2022-12-17T02:41:01;3.05;;;2.00;;
11490;SDS011;5802;52.832;4.758;2022-12-17T02:43:49;2.42;;;2.22;;
11490;SDS011;5802;52.832;4.758;2022-12-17T02:46:35;2.47;;;2.28;;
11490;SDS011;5802;52.832;4.758;2022-12-17T02:49:21;2.17;;;1.90;;
11490;SDS011;5802;52.832;4.758;2022-12-17T02:52:06;2.78;;;2.33;;
11490;SDS011;5802;52.832;4.758;2022-12-17T02:54:51;2.42;;;2.22;;
11490;SDS011;5802;52.832;4.758;2022-12-17T02:57:35;2.55;;;2.15;;
11490;SDS011;5802;52.832;4.758;2022-12-17T03:00:21;2.30;;;2.10;;
11490;SDS011;5802;52.832;4.758;2022-12-17T03:03:05;2.40;;;2.08;;
11490;SDS011;5802;52.832;4.758;2022-12-17T03:05:55;3.55;;;2.60;;
11490;SDS011;5802;52.832;4.758;2022-12-17T03:08:39;2.58;;;2.20;;
11490;SDS011;5802;52.832;4.758;2022-12-17T03:11:26;2.50;;;2.10;;
11490;SDS011;5802;52.832;4.758;2022-12-17T03:14:11;2.25;;;2.05;;
11490;SDS011;5802;52.832;4.758;2022-12-17T03:16:56;2.42;;;2.22;;
11490;SDS011;5802;52.832;4.758;2022-12-17T03:19:41;3.17;;;2.45;;
11490;SDS011;5802;52.832;4.758;2022-12-17T03:22:25;2.40;;;2.15;;
11490;SDS011;5802;52.832;4.758;2022-12-17T03:25:09;2.65;;;2.33;;
11490;SDS011;5802;52.832;4.758;2022-12-17T03:27:53;2.13;;;1.92;;
11490;SDS011;5802;52.832;4.758;2022-12-17T03:30:37;2.72;;;2.40;;
11490;SDS011;5802;52.832;4.758;2022-12-17T03:33:34;2.60;;;2.40;;
11490;SDS011;5802;52.832;4.758;2022-12-17T03:36:19;2.83;;;2.45;;
11490;SDS011;5802;52.832;4.758;2022-12-17T03:39:03;2.40;;;2.20;;
11490;SDS011;5802;52.832;4.758;2022-12-17T03:41:44;2.45;;;2.25;;
11490;SDS011;5802;52.832;4.758;2022-12-17T03:44:28;2.50;;;2.10;;
11490;SDS011;5802;52.832;4.758;2022-12-17T03:47:12;3.35;;;2.17;;
11490;SDS011;5802;52.832;4.758;2022-12-17T03:49:58;2.20;;;2.00;;
11490;SDS011;5802;52.832;4.758;2022-12-17T03:52:42;2.58;;;2.33;;
11490;SDS011;5802;52.832;4.758;2022-12-17T03:55:26;3.03;;;2.30;;
11490;SDS011;5802;52.832;4.758;2022-12-17T03:58:10;2.40;;;2.20;;
11490;SDS011;5802;52.832;4.758;2022-12-17T04:00:55;3.10;;;2.80;;
11490;SDS011;5802;52.832;4.758;2022-12-17T04:03:39;3.08;;;2.50;;
11490;SDS011;5802;52.832;4.758;2022-12-17T04:06:24;2.28;;;2.08;;
11490;SDS011;5802;52.832;4.758;2022-12-17T04:09:09;3.28;;;2.45;;
11490;SDS011;5802;52.832;4.758;2022-12-17T04:11:53;2.80;;;2.20;;
11490;SDS011;5802;52.832;4.758;2022-12-17T04:14:37;2.80;;;2.33;;
11490;SDS011;5802;52.832;4.758;2022-12-17T04:17:21;3.58;;;2.38;;
11490;SDS011;5802;52.832;4.758;2022-12-17T04:20:06;3.35;;;2.80;;
11490;SDS011;5802;52.832;4.758;2022-12-17T04:22:52;3.80;;;2.47;;
11490;SDS011;5802;52.832;4.758;2022-12-17T04:25:37;3.05;;;2.65;;
11490;SDS011;5802;52.832;4.758;2022-12-17T04:28:21;2.85;;;2.63;;
11490;SDS011;5802;52.832;4.758;2022-12-17T04:31:05;3.03;;;2.70;;
11490;SDS011;5802;52.832;4.758;2022-12-17T04:33:50;3.08;;;2.78;;
11490;SDS011;5802;52.832;4.758;2022-12-17T04:36:35;3.13;;;2.78;;
11490;SDS011;5802;52.832;4.758;2022-12-17T04:39:32;3.33;;;2.80;;
11490;SDS011;5802;52.832;4.758;2022-12-17T04:42:16;3.42;;;2.78;;
11490;SDS011;5802;52.832;4.758;2022-12-17T04:45:01;3.60;;;3.20;;
11490;SDS011;5802;52.832;4.758;2022-12-17T04:47:45;3.80;;;2.97;;
11490;SDS011;5802;52.832;4.758;2022-12-17T04:50:29;3.22;;;2.80;;
11490;SDS011;5802;52.832;4.758;2022-12-17T04:53:14;3.35;;;2.80;;
11490;SDS011;5802;52.832;4.758;2022-12-17T04:55:59;3.03;;;2.72;;
11490;SDS011;5802;52.832;4.758;2022-12-17T04:58:51;2.90;;;2.60;;
11490;SDS011;5802;52.832;4.758;2022-12-17T05:01:36;3.15;;;2.63;;
11490;SDS011;5802;52.832;4.758;2022-12-17T05:04:22;3.20;;;2.80;;
11490;SDS011;5802;52.832;4.758;2022-12-17T05:07:07;3.42;;;2.83;;
11490;SDS011;5802;52.832;4.758;2022-12-17T05:09:51;3.42;;;2.92;;
11490;SDS011;5802;52.832;4.758;2022-12-17T05:12:36;3.45;;;3.03;;
11490;SDS011;5802;52.832;4.758;2022-12-17T05:15:20;3.70;;;2.80;;
11490;SDS011;5802;52.832;4.758;2022-12-17T05:18:05;3.72;;;2.75;;
11490;SDS011;5802;52.832;4.758;2022-12-17T05:20:50;3.47;;;2.83;;
11490;SDS011;5802;52.832;4.758;2022-12-17T05:23:34;3.22;;;2.70;;
11490;SDS011;5802;52.832;4.758;2022-12-17T05:26:19;4.88;;;2.85;;
11490;SDS011;5802;52.832;4.758;2022-12-17T05:29:05;3.83;;;2.85;;
11490;SDS011;5802;52.832;4.758;2022-12-17T05:31:50;3.65;;;2.90;;
11490;SDS011;5802;52.832;4.758;2022-12-17T05:34:35;3.58;;;2.80;;
11490;SDS011;5802;52.832;4.758;2022-12-17T05:37:19;3.67;;;3.08;;
11490;SDS011;5802;52.832;4.758;2022-12-17T05:40:04;3.83;;;3.08;;
11490;SDS011;5802;52.832;4.758;2022-12-17T05:42:53;3.15;;;2.65;;
11490;SDS011;5802;52.832;4.758;2022-12-17T05:45:40;3.38;;;2.90;;
11490;SDS011;5802;52.832;4.758;2022-12-17T05:48:24;3.42;;;3.00;;
11490;SDS011;5802;52.832;4.758;2022-12-17T05:51:17;3.88;;;3.17;;
11490;SDS011;5802;52.832;4.758;2022-12-17T05:54:02;3.75;;;2.92;;
11490;SDS011;5802;52.832;4.758;2022-12-17T05:56:46;3.60;;;3.00;;
11490;SDS011;5802;52.832;4.758;2022-12-17T05:59:30;3.75;;;3.13;;
11490;SDS011;5802;52.832;4.758;2022-12-17T06:02:16;3.75;;;2.92;;
11490;SDS011;5802;52.832;4.758;2022-12-17T06:05:00;3.17;;;2.70;;
11490;SDS011;5802;52.832;4.758;2022-12-17T06:07:44;4.50;;;2.92;;
11490;SDS011;5802;52.832;4.758;2022-12-17T06:10:28;4.32;;;3.10;;
11490;SDS011;5802;52.832;4.758;2022-12-17T06:13:13;4.05;;;3.10;;
11490;SDS011;5802;52.832;4.758;2022-12-17T06:16:11;4.00;;;3.05;;
11490;SDS011;5802;52.832;4.758;2022-12-17T06:18:57;3.80;;;3.28;;
11490;SDS011;5802;52.832;4.758;2022-12-17T06:21:40;4.20;;;2.95;;
11490;SDS011;5802;52.832;4.758;2022-12-17T06:24:25;2.95;;;2.67;;
11490;SDS011;5802;52.832;4.758;2022-12-17T06:27:09;4.10;;;2.95;;
11490;SDS011;5802;52.832;4.758;2022-12-17T06:29:53;3.20;;;2.90;;
11490;SDS011;5802;52.832;4.758;2022-12-17T06:32:37;3.65;;;3.00;;
11490;SDS011;5802;52.832;4.758;2022-12-17T06:35:25;4.03;;;3.42;;
11490;SDS011;5802;52.832;4.758;2022-12-17T06:38:10;4.25;;;3.28;;
11490;SDS011;5802;52.832;4.758;2022-12-17T06:40:54;3.70;;;3.30;;
11490;SDS011;5802;52.832;4.758;2022-12-17T06:43:38;3.10;;;2.80;;
11490;SDS011;5802;52.832;4.758;2022-12-17T06:46:22;3.40;;;3.10;;
11490;SDS011;5802;52.832;4.758;2022-12-17T06:49:08;4.32;;;3.00;;
11490;SDS011;5802;52.832;4.758;2022-12-17T06:51:53;3.60;;;2.92;;
11490;SDS011;5802;52.832;4.758;2022-12-17T06:54:38;3.75;;;3.17;;
11490;SDS011;5802;52.832;4.758;2022-12-17T06:57:22;3.05;;;2.75;;
11490;SDS011;5802;52.832;4.758;2022-12-17T07:00:06;3.20;;;2.90;;
11490;SDS011;5802;52.832;4.758;2022-12-17T07:02:53;4.10;;;3.33;;
11490;SDS011;5802;52.832;4.758;2022-12-17T07:05:38;3.42;;;2.78;;
11490;SDS011;5802;52.832;4.758;2022-12-17T07:08:23;3.30;;;3.00;;
11490;SDS011;5802;52.832;4.758;2022-12-17T07:11:08;4.05;;;2.92;;
11490;SDS011;5802;52.832;4.758;2022-12-17T07:13:52;4.72;;;3.50;;
11490;SDS011;5802;52.832;4.758;2022-12-17T07:16:36;3.42;;;3.10;;
11490;SDS011;5802;52.832;4.758;2022-12-17T07:19:21;3.90;;;3.20;;
11490;SDS011;5802;52.832;4.758;2022-12-17T07:22:05;3.75;;;3.25;;
11490;SDS011;5802;52.832;4.758;2022-12-17T07:24:51;7.43;;;3.10;;
11490;SDS011;5802;52.832;4.758;2022-12-17T07:27:35;5.05;;;3.25;;
11490;SDS011;5802;52.832;4.758;2022-12-17T07:30:19;5.32;;;3.00;;
11490;SDS011;5802;52.832;4.758;2022-12-17T07:33:03;4.10;;;3.53;;
11490;SDS011;5802;52.832;4.758;2022-12-17T07:35:50;4.47;;;3.28;;
11490;SDS011;5802;52.832;4.758;2022-12-17T07:38:35;3.70;;;3.17;;
11490;SDS011;5802;52.832;4.758;2022-12-17T07:41:20;5.30;;;3.25;;
11490;SDS011;5802;52.832;4.758;2022-12-17T07:44:05;3.28;;;2.97;;
11490;SDS011;5802;52.832;4.758;2022-12-17T07:46:49;4.78;;;3.45;;
11490;SDS011;5802;52.832;4.758;2022-12-17T07:49:33;4.97;;;2.80;;
11490;SDS011;5802;52.832;4.758;2022-12-17T07:52:17;4.07;;;3.22;;
11490;SDS011;5802;52.832;4.758;2022-12-17T07:55:02;4.35;;;3.00;;
11490;SDS011;5802;52.832;4.758;2022-12-17T07:57:47;4.15;;;3.10;;
11490;SDS011;5802;52.832;4.758;2022-12-17T08:00:41;3.33;;;2.85;;
11490;SDS011;5802;52.832;4.758;2022-12-17T08:03:25;4.97;;;3.13;;
11490;SDS011;5802;52.832;4.758;2022-12-17T08:06:09;3.35;;;2.83;;
11490;SDS011;5802;52.832;4.758;2022-12-17T08:08:53;3.65;;;3.00;;
11490;SDS011;5802;52.832;4.758;2022-12-17T08:11:46;4.10;;;3.15;;
11490;SDS011;5802;52.832;4.758;2022-12-17T08:14:32;4.50;;;3.15;;
11490;SDS011;5802;52.832;4.758;2022-12-17T08:17:16;3.55;;;3.10;;
11490;SDS011;5802;52.832;4.758;2022-12-17T08:20:00;3.53;;;3.08;;
11490;SDS011;5802;52.832;4.758;2022-12-17T08:22:44;3.40;;;3.08;;
11490;SDS011;5802;52.832;4.758;2022-12-17T08:25:28;4.10;;;3.20;;
11490;SDS011;5802;52.832;4.758;2022-12-17T08:28:13;3.17;;;2.88;;
11490;SDS011;5802;52.832;4.758;2022-12-17T08:30:58;3.67;;;3.15;;
11490;SDS011;5802;52.832;4.758;2022-12-17T08:33:42;4.05;;;3.28;;
11490;SDS011;5802;52.832;4.758;2022-12-17T08:36:27;4.15;;;3.17;;
11490;SDS011;5802;52.832;4.758;2022-12-17T08:39:11;4.03;;;3.28;;
11490;SDS011;5802;52.832;4.758;2022-12-17T08:41:55;3.17;;;2.88;;
11490;SDS011;5802;52.832;4.758;2022-12-17T08:44:41;4.50;;;3.00;;
11490;SDS011;5802;52.832;4.758;2022-12-17T08:47:27;3.95;;;3.00;;
11490;SDS011;5802;52.832;4.758;2022-12-17T08:50:11;5.22;;;3.08;;
11490;SDS011;5802;52.832;4.758;2022-12-17T08:52:56;3.20;;;2.88;;
11490;SDS011;5802;52.832;4.758;2022-12-17T08:55:41;3.25;;;2.90;;
11490;SDS011;5802;52.832;4.758;2022-12-17T08:58:25;4.10;;;3.10;;
11490;SDS011;5802;52.832;4.758;2022-12-17T09:01:09;4.45;;;3.05;;
11490;SDS011;5802;52.832;4.758;2022-12-17T09:03:55;4.10;;;2.88;;
11490;SDS011;5802;52.832;4.758;2022-12-17T09:06:39;3.35;;;2.85;;
11490;SDS011;5802;52.832;4.758;2022-12-17T09:09:23;3.38;;;2.80;;
11490;SDS011;5802;52.832;4.758;2022-12-17T09:12:07;3.53;;;2.97;;
11490;SDS011;5802;52.832;4.758;2022-12-17T09:14:51;3.92;;;2.97;;
11490;SDS011;5802;52.832;4.758;2022-12-17T09:17:35;3.30;;;3.00;;
11490;SDS011;5802;52.832;4.758;2022-12-17T09:20:21;3.80;;;2.80;;
11490;SDS011;5802;52.832;4.758;2022-12-17T09:23:05;3.20;;;2.75;;
11490;SDS011;5802;52.832;4.758;2022-12-17T09:25:51;4.78;;;3.00;;
11490;SDS011;5802;52.832;4.758;2022-12-17T09:28:35;3.53;;;2.80;;
11490;SDS011;5802;52.832;4.758;2022-12-17T09:31:19;3.17;;;2.80;;
11490;SDS011;5802;52.832;4.758;2022-12-17T09:34:03;5.30;;;2.92;;
11490;SDS011;5802;52.832;4.758;2022-12-17T09:36:51;3.35;;;3.00;;
11490;SDS011;5802;52.832;4.758;2022-12-17T09:39:36;3.55;;;2.97;;
11490;SDS011;5802;52.832;4.758;2022-12-17T09:42:20;3.05;;;2.65;;
11490;SDS011;5802;52.832;4.758;2022-12-17T09:45:08;3.20;;;2.90;;
11490;SDS011;5802;52.832;4.758;2022-12-17T09:47:58;4.38;;;2.65;;
11490;SDS011;5802;52.832;4.758;2022-12-17T09:50:50;3.33;;;2.85;;
11490;SDS011;5802;52.832;4.758;2022-12-17T09:53:37;6.18;;;3.10;;
11490;SDS011;5802;52.832;4.758;2022-12-17T09:56:26;4.60;;;2.70;;
11490;SDS011;5802;52.832;4.758;2022-12-17T09:59:16;4.18;;;2.80;;
11490;SDS011;5802;52.832;4.758;2022-12-17T10:02:06;4.47;;;3.05;;
11490;SDS011;5802;52.832;4.758;2022-12-17T10:04:55;4.65;;;3.05;;
11490;SDS011;5802;52.832;4.758;2022-12-17T10:07:41;3.80;;;3.00;;
11490;SDS011;5802;52.832;4.758;2022-12-17T10:10:30;3.75;;;3.08;;
11490;SDS011;5802;52.832;4.758;2022-12-17T10:13:17;4.18;;;3.13;;
11490;SDS011;5802;52.832;4.758;2022-12-17T10:16:15;3.92;;;3.20;;
11490;SDS011;5802;52.832;4.758;2022-12-17T10:19:12;3.38;;;2.90;;
11490;SDS011;5802;52.832;4.758;2022-12-17T10:22:09;3.20;;;2.70;;
11490;SDS011;5802;52.832;4.758;2022-12-17T10:24:54;5.18;;;3.13;;
11490;SDS011;5802;52.832;4.758;2022-12-17T10:27:39;4.03;;;3.28;;
11490;SDS011;5802;52.832;4.758;2022-12-17T10:30:24;10.15;;;3.20;;
11490;SDS011;5802;52.832;4.758;2022-12-17T10:33:10;6.82;;;3.70;;
11490;SDS011;5802;52.832;4.758;2022-12-17T10:35:58;5.88;;;3.97;;
11490;SDS011;5802;52.832;4.758;2022-12-17T10:38:42;8.73;;;4.22;;
11490;SDS011;5802;52.832;4.758;2022-12-17T10:41:27;9.20;;;4.40;;
11490;SDS011;5802;52.832;4.758;2022-12-17T10:47:19;9.60;;;4.95;;
11490;SDS011;5802;52.832;4.758;2022-12-17T10:50:05;9.75;;;5.20;;
11490;SDS011;5802;52.832;4.758;2022-12-17T10:52:52;9.55;;;4.93;;
11490;SDS011;5802;52.832;4.758;2022-12-17T10:55:44;8.07;;;4.93;;
11490;SDS011;5802;52.832;4.758;2022-12-17T10:58:27;9.55;;;6.05;;
11490;SDS011;5802;52.832;4.758;2022-12-17T11:01:17;9.93;;;6.03;;
11490;SDS011;5802;52.832;4.758;2022-12-17T11:04:16;8.20;;;5.50;;
11490;SDS011;5802;52.832;4.758;2022-12-17T11:07:05;8.93;;;5.55;;
11490;SDS011;5802;52.832;4.758;2022-12-17T11:09:52;11.38;;;5.55;;
11490;SDS011;5802;52.832;4.758;2022-12-17T11:12:40;10.55;;;5.57;;
11490;SDS011;5802;52.832;4.758;2022-12-17T11:15:29;7.25;;;5.68;;
11490;SDS011;5802;52.832;4.758;2022-12-17T11:18:21;8.80;;;6.10;;
11490;SDS011;5802;52.832;4.758;2022-12-17T11:21:09;8.88;;;6.30;;
11490;SDS011;5802;52.832;4.758;2022-12-17T11:23:55;7.90;;;6.05;;
11490;SDS011;5802;52.832;4.758;2022-12-17T11:26:42;8.00;;;5.63;;
11490;SDS011;5802;52.832;4.758;2022-12-17T11:29:30;7.32;;;5.88;;
11490;SDS011;5802;52.832;4.758;2022-12-17T11:32:22;7.88;;;6.07;;
11490;SDS011;5802;52.832;4.758;2022-12-17T11:35:25;8.77;;;5.97;;
11490;SDS011;5802;52.832;4.758;2022-12-17T11:38:20;9.05;;;6.10;;
11490;SDS011;5802;52.832;4.758;2022-12-17T11:41:11;8.15;;;6.03;;
11490;SDS011;5802;52.832;4.758;2022-12-17T11:44:02;11.63;;;6.20;;
11490;SDS011;5802;52.832;4.758;2022-12-17T11:46:54;10.73;;;5.90;;
11490;SDS011;5802;52.832;4.758;2022-12-17T11:49:48;7.90;;;5.88;;
11490;SDS011;5802;52.832;4.758;2022-12-17T11:52:41;9.75;;;6.30;;
11490;SDS011;5802;52.832;4.758;2022-12-17T11:55:33;14.50;;;6.15;;
11490;SDS011;5802;52.832;4.758;2022-12-17T11:58:24;8.48;;;6.18;;
11490;SDS011;5802;52.832;4.758;2022-12-17T12:01:18;8.45;;;6.15;;
11490;SDS011;5802;52.832;4.758;2022-12-17T12:04:11;9.80;;;6.53;;
11490;SDS011;5802;52.832;4.758;2022-12-17T12:07:14;10.80;;;6.45;;
11490;SDS011;5802;52.832;4.758;2022-12-17T12:10:08;7.85;;;6.00;;
11490;SDS011;5802;52.832;4.758;2022-12-17T12:13:08;8.13;;;5.50;;
11490;SDS011;5802;52.832;4.758;2022-12-17T12:16:03;9.23;;;5.72;;
11490;SDS011;5802;52.832;4.758;2022-12-17T12:18:54;7.47;;;5.05;;
11490;SDS011;5802;52.832;4.758;2022-12-17T12:21:54;6.60;;;4.85;;
11490;SDS011;5802;52.832;4.758;2022-12-17T12:24:49;7.68;;;5.00;;
11490;SDS011;5802;52.832;4.758;2022-12-17T12:27:45;10.13;;;5.18;;
11490;SDS011;5802;52.832;4.758;2022-12-17T12:30:37;6.95;;;5.07;;
11490;SDS011;5802;52.832;4.758;2022-12-17T12:33:27;6.55;;;4.97;;
11490;SDS011;5802;52.832;4.758;2022-12-17T12:36:17;7.15;;;4.90;;
11490;SDS011;5802;52.832;4.758;2022-12-17T12:39:02;7.60;;;4.50;;
11490;SDS011;5802;52.832;4.758;2022-12-17T12:41:49;6.13;;;4.60;;
11490;SDS011;5802;52.832;4.758;2022-12-17T12:44:46;6.50;;;4.53;;
11490;SDS011;5802;52.832;4.758;2022-12-17T12:47:38;6.00;;;4.63;;
11490;SDS011;5802;52.832;4.758;2022-12-17T12:50:32;6.18;;;4.45;;
11490;SDS011;5802;52.832;4.758;2022-12-17T12:53:24;7.35;;;4.30;;
11490;SDS011;5802;52.832;4.758;2022-12-17T12:59:09;5.68;;;4.47;;
11490;SDS011;5802;52.832;4.758;2022-12-17T13:01:56;5.40;;;4.32;;
11490;SDS011;5802;52.832;4.758;2022-12-17T13:04:41;7.25;;;4.70;;
11490;SDS011;5802;52.832;4.758;2022-12-17T13:07:26;6.28;;;4.60;;
11490;SDS011;5802;52.832;4.758;2022-12-17T13:09:55;6.72;;;4.20;;
11490;SDS011;5802;52.832;4.758;2022-12-17T13:12:27;5.68;;;4.38;;
11490;SDS011;5802;52.832;4.758;2022-12-17T13:15:07;7.63;;;4.15;;
11490;SDS011;5802;52.832;4.758;2022-12-17T13:17:43;6.15;;;4.13;;
11490;SDS011;5802;52.832;4.758;2022-12-17T13:20:22;5.03;;;4.22;;
11490;SDS011;5802;52.832;4.758;2022-12-17T13:22:51;7.78;;;3.80;;
11490;SDS011;5802;52.832;4.758;2022-12-17T13:25:29;10.30;;;4.47;;
11490;SDS011;5802;52.832;4.758;2022-12-17T13:27:56;5.47;;;4.35;;
11490;SDS011;5802;52.832;4.758;2022-12-17T13:30:29;5.68;;;4.32;;
11490;SDS011;5802;52.832;4.758;2022-12-17T13:33:06;7.72;;;4.10;;
11490;SDS011;5802;52.832;4.758;2022-12-17T13:35:47;5.57;;;4.25;;
11490;SDS011;5802;52.832;4.758;2022-12-17T13:38:25;5.85;;;4.50;;
11490;SDS011;5802;52.832;4.758;2022-12-17T13:41:01;8.60;;;4.47;;
11490;SDS011;5802;52.832;4.758;2022-12-17T13:43:33;5.53;;;4.38;;
11490;SDS011;5802;52.832;4.758;2022-12-17T13:46:05;6.82;;;4.00;;
11490;SDS011;5802;52.832;4.758;2022-12-17T13:48:33;5.05;;;4.10;;
11490;SDS011;5802;52.832;4.758;2022-12-17T13:51:00;4.57;;;3.72;;
11490;SDS011;5802;52.832;4.758;2022-12-17T13:53:29;5.32;;;3.85;;
11490;SDS011;5802;52.832;4.758;2022-12-17T13:55:58;8.60;;;4.47;;
11490;SDS011;5802;52.832;4.758;2022-12-17T13:58:26;10.70;;;4.20;;
11490;SDS011;5802;52.832;4.758;2022-12-17T14:01:04;5.50;;;4.45;;
11490;SDS011;5802;52.832;4.758;2022-12-17T14:03:33;5.15;;;4.07;;
11490;SDS011;5802;52.832;4.758;2022-12-17T14:06:00;6.40;;;4.25;;
11490;SDS011;5802;52.832;4.758;2022-12-17T14:08:29;4.97;;;3.92;;
11490;SDS011;5802;52.832;4.758;2022-12-17T14:10:57;7.50;;;4.25;;
11490;SDS011;5802;52.832;4.758;2022-12-17T14:13:38;6.72;;;4.00;;
11490;SDS011;5802;52.832;4.758;2022-12-17T14:16:05;7.07;;;4.10;;
11490;SDS011;5802;52.832;4.758;2022-12-17T14:18:34;9.32;;;4.30;;
11490;SDS011;5802;52.832;4.758;2022-12-17T14:21:02;7.78;;;4.18;;
11490;SDS011;5802;52.832;4.758;2022-12-17T14:23:30;6.53;;;4.50;;
11490;SDS011;5802;52.832;4.758;2022-12-17T14:25:58;5.78;;;3.97;;
11490;SDS011;5802;52.832;4.758;2022-12-17T14:28:28;7.28;;;4.32;;
11490;SDS011;5802;52.832;4.758;2022-12-17T14:31:02;5.28;;;3.83;;
11490;SDS011;5802;52.832;4.758;2022-12-17T14:33:31;6.78;;;4.00;;
11490;SDS011;5802;52.832;4.758;2022-12-17T14:36:02;6.95;;;3.90;;
11490;SDS011;5802;52.832;4.758;2022-12-17T14:38:32;6.47;;;4.32;;
11490;SDS011;5802;52.832;4.758;2022-12-17T14:41:02;4.50;;;3.72;;
11490;SDS011;5802;52.832;4.758;2022-12-17T14:43:54;4.97;;;3.80;;
11490;SDS011;5802;52.832;4.758;2022-12-17T14:46:22;4.97;;;3.92;;
11490;SDS011;5802;52.832;4.758;2022-12-17T14:48:53;5.85;;;3.78;;
11490;SDS011;5802;52.832;4.758;2022-12-17T14:51:28;4.97;;;3.90;;
11490;SDS011;5802;52.832;4.758;2022-12-17T14:54:04;7.38;;;4.03;;
11490;SDS011;5802;52.832;4.758;2022-12-17T14:56:43;4.97;;;3.85;;
11490;SDS011;5802;52.832;4.758;2022-12-17T14:59:25;4.90;;;3.58;;
11490;SDS011;5802;52.832;4.758;2022-12-17T15:01:56;4.13;;;3.47;;
11490;SDS011;5802;52.832;4.758;2022-12-17T15:04:27;4.80;;;3.70;;
11490;SDS011;5802;52.832;4.758;2022-12-17T15:06:56;4.85;;;4.00;;
11490;SDS011;5802;52.832;4.758;2022-12-17T15:09:23;5.00;;;3.78;;
11490;SDS011;5802;52.832;4.758;2022-12-17T15:11:50;5.05;;;3.80;;
11490;SDS011;5802;52.832;4.758;2022-12-17T15:14:17;4.60;;;3.75;;
11490;SDS011;5802;52.832;4.758;2022-12-17T15:16:43;5.47;;;4.07;;
11490;SDS011;5802;52.832;4.758;2022-12-17T15:19:10;4.32;;;3.85;;
11490;SDS011;5802;52.832;4.758;2022-12-17T15:21:38;4.75;;;3.72;;
11490;SDS011;5802;52.832;4.758;2022-12-17T15:24:05;5.75;;;4.00;;
11490;SDS011;5802;52.832;4.758;2022-12-17T15:26:36;4.55;;;3.55;;
11490;SDS011;5802;52.832;4.758;2022-12-17T15:29:02;5.25;;;3.83;;
11490;SDS011;5802;52.832;4.758;2022-12-17T15:31:29;6.28;;;4.25;;
11490;SDS011;5802;52.832;4.758;2022-12-17T15:33:56;6.40;;;3.85;;
11490;SDS011;5802;52.832;4.758;2022-12-17T15:36:23;5.75;;;3.88;;
11490;SDS011;5802;52.832;4.758;2022-12-17T15:38:51;7.00;;;4.30;;
11490;SDS011;5802;52.832;4.758;2022-12-17T15:41:17;4.82;;;3.78;;
11490;SDS011;5802;52.832;4.758;2022-12-17T15:44:02;4.63;;;3.95;;
11490;SDS011;5802;52.832;4.758;2022-12-17T15:46:28;4.40;;;3.75;;
11490;SDS011;5802;52.832;4.758;2022-12-17T15:48:55;4.75;;;3.97;;
11490;SDS011;5802;52.832;4.758;2022-12-17T15:51:22;5.80;;;3.80;;
11490;SDS011;5802;52.832;4.758;2022-12-17T15:53:49;7.78;;;3.95;;
11490;SDS011;5802;52.832;4.758;2022-12-17T15:56:17;4.65;;;3.47;;
11490;SDS011;5802;52.832;4.758;2022-12-17T15:58:45;4.63;;;3.65;;
11490;SDS011;5802;52.832;4.758;2022-12-17T16:01:12;5.72;;;3.72;;
11490;SDS011;5802;52.832;4.758;2022-12-17T16:03:39;4.75;;;3.97;;
11490;SDS011;5802;52.832;4.758;2022-12-17T16:06:06;4.22;;;3.50;;
11490;SDS011;5802;52.832;4.758;2022-12-17T16:08:33;5.97;;;3.60;;
11490;SDS011;5802;52.832;4.758;2022-12-17T16:11:05;7.10;;;4.00;;
11490;SDS011;5802;52.832;4.758;2022-12-17T16:13:33;9.98;;;4.03;;
11490;SDS011;5802;52.832;4.758;2022-12-17T16:16:00;5.72;;;4.15;;
11490;SDS011;5802;52.832;4.758;2022-12-17T16:18:26;8.10;;;4.10;;
11490;SDS011;5802;52.832;4.758;2022-12-17T16:20:53;6.47;;;4.40;;
11490;SDS011;5802;52.832;4.758;2022-12-17T16:23:25;6.82;;;3.85;;
11490;SDS011;5802;52.832;4.758;2022-12-17T16:25:54;4.50;;;3.67;;
11490;SDS011;5802;52.832;4.758;2022-12-17T16:28:24;4.55;;;3.92;;
11490;SDS011;5802;52.832;4.758;2022-12-17T16:30:58;9.20;;;4.30;;
11490;SDS011;5802;52.832;4.758;2022-12-17T16:33:26;5.55;;;3.90;;
11490;SDS011;5802;52.832;4.758;2022-12-17T16:35:56;6.22;;;4.20;;
11490;SDS011;5802;52.832;4.758;2022-12-17T16:38:22;4.75;;;3.70;;
11490;SDS011;5802;52.832;4.758;2022-12-17T16:40:52;6.53;;;3.90;;
11490;SDS011;5802;52.832;4.758;2022-12-17T16:43:21;4.95;;;3.95;;
11490;SDS011;5802;52.832;4.758;2022-12-17T16:45:50;7.13;;;4.55;;